sensor_id;sensor_type;location;lat;lon;timestamp;pressure;altitude;pressure_sealevel;temperature;humidity
28167;BME280;15455;53.376;-6.262;2022-12-29T00:02:37;98499.09;;;4.73;100.00
28167;BME280;15455;53.376;-6.262;2022-12-29T00:05:23;98504.25;;;4.75;100.00
28167;BME280;15455;53.376;-6.262;2022-12-29T00:08:08;98496.38;;;4.81;100.00
28167;BME280;15455;53.376;-6.262;2022-12-29T00:10:54;98499.91;;;4.78;100.00
28167;BME280;15455;53.376;-6.262;2022-12-29T00:13:40;98499.91;;;4.77;100.00
28167;BME280;15455;53.376;-6.262;2022-12-29T00:16:45;98501.63;;;4.76;100.00
28167;BME280;15455;53.376;-6.262;2022-12-29T00:19:31;98506.84;;;4.73;100.00
28167;BME280;15455;53.376;-6.262;2022-12-29T00:22:35;98512.00;;;4.73;100.00
28167;BME280;15455;53.376;-6.262;2022-12-29T00:25:39;98518.94;;;4.71;100.00
28167;BME280;15455;53.376;-6.262;2022-12-29T00:28:43;98536.13;;;4.74;100.00
28167;BME280;15455;53.376;-6.262;2022-12-29T00:31:47;98541.25;;;4.77;100.00
28167;BME280;15455;53.376;-6.262;2022-12-29T00:34:51;98552.47;;;4.76;100.00
28167;BME280;15455;53.376;-6.262;2022-12-29T00:38:00;98547.41;;;4.69;100.00
28167;BME280;15455;53.376;-6.262;2022-12-29T00:41:06;98548.19;;;4.73;100.00
28167;BME280;15455;53.376;-6.262;2022-12-29T00:44:13;98554.25;;;4.70;100.00
28167;BME280;15455;53.376;-6.262;2022-12-29T00:46:59;98560.34;;;4.68;100.00
28167;BME280;15455;53.376;-6.262;2022-12-29T00:49:49;98568.06;;;4.69;100.00
28167;BME280;15455;53.376;-6.262;2022-12-29T00:52:35;98562.91;;;4.69;100.00
28167;BME280;15455;53.376;-6.262;2022-12-29T00:55:20;98565.44;;;4.73;100.00
28167;BME280;15455;53.376;-6.262;2022-12-29T00:58:06;98559.44;;;4.69;100.00
28167;BME280;15455;53.376;-6.262;2022-12-29T01:00:51;98557.75;;;4.68;100.00
28167;BME280;15455;53.376;-6.262;2022-12-29T01:03:37;98566.31;;;4.72;100.00
28167;BME280;15455;53.376;-6.262;2022-12-29T01:06:23;98572.28;;;4.74;100.00
28167;BME280;15455;53.376;-6.262;2022-12-29T01:09:10;98580.97;;;4.69;100.00
28167;BME280;15455;53.376;-6.262;2022-12-29T01:12:14;98580.09;;;4.69;100.00
28167;BME280;15455;53.376;-6.262;2022-12-29T01:14:59;98583.63;;;4.63;100.00
28167;BME280;15455;53.376;-6.262;2022-12-29T01:17:45;98582.75;;;4.66;100.00
28167;BME280;15455;53.376;-6.262;2022-12-29T01:20:30;98593.06;;;4.66;100.00
28167;BME280;15455;53.376;-6.262;2022-12-29T01:23:16;98592.28;;;4.62;100.00
28167;BME280;15455;53.376;-6.262;2022-12-29T01:26:13;98600.03;;;4.59;100.00
28167;BME280;15455;53.376;-6.262;2022-12-29T01:28:59;98591.50;;;4.56;100.00
28167;BME280;15455;53.376;-6.262;2022-12-29T01:31:44;98584.63;;;4.53;100.00
28167;BME280;15455;53.376;-6.262;2022-12-29T01:34:30;98587.25;;;4.50;100.00
28167;BME280;15455;53.376;-6.262;2022-12-29T01:37:15;98588.16;;;4.47;100.00
28167;BME280;15455;53.376;-6.262;2022-12-29T01:40:02;98595.03;;;4.48;100.00
28167;BME280;15455;53.376;-6.262;2022-12-29T01:42:49;98594.19;;;4.48;100.00
28167;BME280;15455;53.376;-6.262;2022-12-29T01:45:35;98600.22;;;4.47;100.00
28167;BME280;15455;53.376;-6.262;2022-12-29T01:48:21;98595.88;;;4.49;100.00
28167;BME280;15455;53.376;-6.262;2022-12-29T01:51:06;98611.38;;;4.49;100.00
28167;BME280;15455;53.376;-6.262;2022-12-29T01:53:53;98607.88;;;4.53;100.00
28167;BME280;15455;53.376;-6.262;2022-12-29T01:56:41;98605.31;;;4.51;100.00
28167;BME280;15455;53.376;-6.262;2022-12-29T01:59:30;98611.34;;;4.54;100.00
28167;BME280;15455;53.376;-6.262;2022-12-29T02:02:17;98609.56;;;4.56;100.00
28167;BME280;15455;53.376;-6.262;2022-12-29T02:05:09;98615.66;;;4.51;100.00
28167;BME280;15455;53.376;-6.262;2022-12-29T02:07:56;98628.59;;;4.50;100.00
28167;BME280;15455;53.376;-6.262;2022-12-29T02:10:42;98632.09;;;4.44;100.00
28167;BME280;15455;53.376;-6.262;2022-12-29T02:13:29;98626.09;;;4.42;100.00
28167;BME280;15455;53.376;-6.262;2022-12-29T02:16:34;98627.81;;;4.42;100.00
28167;BME280;15455;53.376;-6.262;2022-12-29T02:25:43;98651.94;;;4.41;100.00
28167;BME280;15455;53.376;-6.262;2022-12-29T02:28:59;98648.47;;;4.42;100.00
28167;BME280;15455;53.376;-6.262;2022-12-29T02:32:50;98649.38;;;4.38;100.00
28167;BME280;15455;53.376;-6.262;2022-12-29T02:36:01;98645.84;;;4.45;100.00
28167;BME280;15455;53.376;-6.262;2022-12-29T02:45:32;98669.84;;;4.56;100.00
28167;BME280;15455;53.376;-6.262;2022-12-29T02:48:37;98663.81;;;4.57;100.00
28167;BME280;15455;53.376;-6.262;2022-12-29T02:51:31;98668.09;;;4.58;100.00
28167;BME280;15455;53.376;-6.262;2022-12-29T02:54:20;98667.19;;;4.64;100.00
28167;BME280;15455;53.376;-6.262;2022-12-29T03:00:13;98685.97;;;4.74;100.00
28167;BME280;15455;53.376;-6.262;2022-12-29T03:06:25;98687.66;;;4.78;100.00
28167;BME280;15455;53.376;-6.262;2022-12-29T03:09:36;98682.59;;;4.70;100.00
28167;BME280;15455;53.376;-6.262;2022-12-29T03:15:45;98695.47;;;4.73;100.00
28167;BME280;15455;53.376;-6.262;2022-12-29T03:19:09;98699.75;;;4.77;100.00
28167;BME280;15455;53.376;-6.262;2022-12-29T03:22:17;98704.84;;;4.82;100.00
28167;BME280;15455;53.376;-6.262;2022-12-29T03:25:26;98709.16;;;4.81;100.00
28167;BME280;15455;53.376;-6.262;2022-12-29T03:28:19;98709.09;;;4.86;100.00
28167;BME280;15455;53.376;-6.262;2022-12-29T03:31:07;98716.00;;;4.87;100.00
28167;BME280;15455;53.376;-6.262;2022-12-29T03:33:57;98716.88;;;4.84;100.00
28167;BME280;15455;53.376;-6.262;2022-12-29T03:36:54;98740.97;;;4.86;100.00
28167;BME280;15455;53.376;-6.262;2022-12-29T03:39:42;98736.66;;;4.87;100.00
28167;BME280;15455;53.376;-6.262;2022-12-29T03:42:30;98746.94;;;4.92;100.00
28167;BME280;15455;53.376;-6.262;2022-12-29T03:45:19;98762.47;;;4.92;100.00
28167;BME280;15455;53.376;-6.262;2022-12-29T03:48:05;98771.03;;;4.94;100.00
28167;BME280;15455;53.376;-6.262;2022-12-29T03:50:50;98775.34;;;4.95;100.00
28167;BME280;15455;53.376;-6.262;2022-12-29T03:53:36;98778.72;;;5.01;100.00
28167;BME280;15455;53.376;-6.262;2022-12-29T03:56:22;98787.31;;;5.03;100.00
28167;BME280;15455;53.376;-6.262;2022-12-29T03:59:08;98785.56;;;5.04;100.00
28167;BME280;15455;53.376;-6.262;2022-12-29T04:01:57;98787.31;;;5.02;100.00
28167;BME280;15455;53.376;-6.262;2022-12-29T04:04:42;98792.56;;;4.97;100.00
28167;BME280;15455;53.376;-6.262;2022-12-29T04:07:28;98795.22;;;4.91;100.00
28167;BME280;15455;53.376;-6.262;2022-12-29T04:10:16;98804.75;;;4.84;100.00
28167;BME280;15455;53.376;-6.262;2022-12-29T04:13:04;98811.66;;;4.82;100.00
28167;BME280;15455;53.376;-6.262;2022-12-29T04:15:49;98824.66;;;4.75;100.00
28167;BME280;15455;53.376;-6.262;2022-12-29T04:18:36;98810.84;;;4.79;100.00
28167;BME280;15455;53.376;-6.262;2022-12-29T04:21:21;98809.97;;;4.80;100.00
28167;BME280;15455;53.376;-6.262;2022-12-29T04:24:06;98814.25;;;4.84;100.00
28167;BME280;15455;53.376;-6.262;2022-12-29T04:26:57;98810.75;;;4.86;100.00
28167;BME280;15455;53.376;-6.262;2022-12-29T04:30:06;98815.13;;;4.81;100.00
28167;BME280;15455;53.376;-6.262;2022-12-29T04:33:10;98830.69;;;4.77;100.00
28167;BME280;15455;53.376;-6.262;2022-12-29T04:35:57;98840.16;;;4.76;100.00
28167;BME280;15455;53.376;-6.262;2022-12-29T04:38:42;98838.44;;;4.75;100.00
28167;BME280;15455;53.376;-6.262;2022-12-29T04:41:28;98846.19;;;4.78;100.00
28167;BME280;15455;53.376;-6.262;2022-12-29T04:44:13;98837.53;;;4.79;100.00
28167;BME280;15455;53.376;-6.262;2022-12-29T04:47:17;98837.50;;;4.84;100.00
28167;BME280;15455;53.376;-6.262;2022-12-29T04:50:39;98842.69;;;4.79;100.00
28167;BME280;15455;53.376;-6.262;2022-12-29T04:53:36;98846.19;;;4.77;100.00
28167;BME280;15455;53.376;-6.262;2022-12-29T04:56:22;98858.28;;;4.72;100.00
28167;BME280;15455;53.376;-6.262;2022-12-29T04:59:07;98863.50;;;4.67;100.00
28167;BME280;15455;53.376;-6.262;2022-12-29T05:01:53;98870.41;;;4.65;100.00
28167;BME280;15455;53.376;-6.262;2022-12-29T05:04:38;98868.66;;;4.68;100.00
28167;BME280;15455;53.376;-6.262;2022-12-29T05:07:24;98871.25;;;4.67;100.00
28167;BME280;15455;53.376;-6.262;2022-12-29T05:10:12;98879.00;;;4.67;100.00
28167;BME280;15455;53.376;-6.262;2022-12-29T05:12:58;98885.94;;;4.60;100.00
28167;BME280;15455;53.376;-6.262;2022-12-29T05:15:50;98895.41;;;4.61;100.00
28167;BME280;15455;53.376;-6.262;2022-12-29T05:18:36;98899.69;;;4.67;100.00
28167;BME280;15455;53.376;-6.262;2022-12-29T05:21:21;98894.47;;;4.72;100.00
28167;BME280;15455;53.376;-6.262;2022-12-29T05:24:07;98872.94;;;4.73;100.00
28167;BME280;15455;53.376;-6.262;2022-12-29T05:26:53;98878.13;;;4.71;100.00
28167;BME280;15455;53.376;-6.262;2022-12-29T05:29:57;98878.16;;;4.65;100.00
28167;BME280;15455;53.376;-6.262;2022-12-29T05:32:43;98878.25;;;4.54;100.00
28167;BME280;15455;53.376;-6.262;2022-12-29T05:35:28;98873.97;;;4.51;100.00
28167;BME280;15455;53.376;-6.262;2022-12-29T05:38:14;98886.09;;;4.42;100.00
28167;BME280;15455;53.376;-6.262;2022-12-29T05:41:01;98882.66;;;4.41;100.00
28167;BME280;15455;53.376;-6.262;2022-12-29T05:44:15;98896.50;;;4.32;100.00
28167;BME280;15455;53.376;-6.262;2022-12-29T05:47:31;98900.81;;;4.32;100.00
28167;BME280;15455;53.376;-6.262;2022-12-29T05:50:47;98911.13;;;4.35;100.00
28167;BME280;15455;53.376;-6.262;2022-12-29T05:53:34;98890.44;;;4.38;100.00
28167;BME280;15455;53.376;-6.262;2022-12-29T05:56:20;98893.88;;;4.37;100.00
28167;BME280;15455;53.376;-6.262;2022-12-29T05:59:12;98887.00;;;4.34;100.00
28167;BME280;15455;53.376;-6.262;2022-12-29T06:01:58;98887.00;;;4.36;100.00
28167;BME280;15455;53.376;-6.262;2022-12-29T06:04:45;98895.63;;;4.30;100.00
28167;BME280;15455;53.376;-6.262;2022-12-29T06:07:31;98891.31;;;4.34;100.00
28167;BME280;15455;53.376;-6.262;2022-12-29T06:10:17;98887.91;;;4.29;100.00
28167;BME280;15455;53.376;-6.262;2022-12-29T06:13:14;98892.25;;;4.25;100.00
28167;BME280;15455;53.376;-6.262;2022-12-29T06:16:03;98897.41;;;4.27;100.00
28167;BME280;15455;53.376;-6.262;2022-12-29T06:18:49;98912.06;;;4.25;100.00
28167;BME280;15455;53.376;-6.262;2022-12-29T06:21:34;98901.72;;;4.22;100.00
28167;BME280;15455;53.376;-6.262;2022-12-29T06:24:20;98910.31;;;4.25;100.00
28167;BME280;15455;53.376;-6.262;2022-12-29T06:27:06;98915.44;;;4.31;100.00
28167;BME280;15455;53.376;-6.262;2022-12-29T06:29:52;98913.75;;;4.26;100.00
28167;BME280;15455;53.376;-6.262;2022-12-29T06:32:37;98917.22;;;4.25;100.00
28167;BME280;15455;53.376;-6.262;2022-12-29T06:35:26;98918.03;;;4.28;100.00
28167;BME280;15455;53.376;-6.262;2022-12-29T06:38:12;98902.53;;;4.30;100.00
28167;BME280;15455;53.376;-6.262;2022-12-29T06:40:57;98914.56;;;4.32;100.00
28167;BME280;15455;53.376;-6.262;2022-12-29T06:43:52;98911.13;;;4.33;100.00
28167;BME280;15455;53.376;-6.262;2022-12-29T06:46:57;98905.03;;;4.44;100.00
28167;BME280;15455;53.376;-6.262;2022-12-29T06:49:42;98909.31;;;4.48;100.00
28167;BME280;15455;53.376;-6.262;2022-12-29T06:52:28;98910.19;;;4.44;100.00
28167;BME280;15455;53.376;-6.262;2022-12-29T06:55:13;98917.94;;;4.44;100.00
28167;BME280;15455;53.376;-6.262;2022-12-29T06:57:59;98924.91;;;4.34;100.00
28167;BME280;15455;53.376;-6.262;2022-12-29T07:00:46;98929.22;;;4.32;100.00
28167;BME280;15455;53.376;-6.262;2022-12-29T07:03:31;98940.41;;;4.29;100.00
28167;BME280;15455;53.376;-6.262;2022-12-29T07:06:17;98933.53;;;4.30;100.00
28167;BME280;15455;53.376;-6.262;2022-12-29T07:09:03;98934.41;;;4.26;100.00
28167;BME280;15455;53.376;-6.262;2022-12-29T07:11:48;98931.84;;;4.23;100.00
28167;BME280;15455;53.376;-6.262;2022-12-29T07:14:34;98942.19;;;4.23;100.00
28167;BME280;15455;53.376;-6.262;2022-12-29T07:17:27;98955.94;;;4.25;100.00
28167;BME280;15455;53.376;-6.262;2022-12-29T07:20:12;98964.53;;;4.25;100.00
28167;BME280;15455;53.376;-6.262;2022-12-29T07:22:58;98963.69;;;4.20;100.00
28167;BME280;15455;53.376;-6.262;2022-12-29T07:25:43;98960.22;;;4.26;100.00
28167;BME280;15455;53.376;-6.262;2022-12-29T07:28:29;98955.09;;;4.23;100.00
28167;BME280;15455;53.376;-6.262;2022-12-29T07:31:16;98961.13;;;4.18;100.00
28167;BME280;15455;53.376;-6.262;2022-12-29T07:34:02;98966.31;;;4.15;100.00
28167;BME280;15455;53.376;-6.262;2022-12-29T07:36:47;98954.28;;;4.10;100.00
28167;BME280;15455;53.376;-6.262;2022-12-29T07:39:33;98968.94;;;4.09;100.00
28167;BME280;15455;53.376;-6.262;2022-12-29T07:42:18;98979.28;;;4.06;100.00
28167;BME280;15455;53.376;-6.262;2022-12-29T07:45:09;98971.56;;;4.02;100.00
28167;BME280;15455;53.376;-6.262;2022-12-29T07:48:20;98976.69;;;4.00;100.00
28167;BME280;15455;53.376;-6.262;2022-12-29T07:51:06;98985.28;;;4.07;100.00
28167;BME280;15455;53.376;-6.262;2022-12-29T07:53:51;99002.47;;;4.12;100.00
28167;BME280;15455;53.376;-6.262;2022-12-29T07:56:37;98996.47;;;4.10;100.00
28167;BME280;15455;53.376;-6.262;2022-12-29T07:59:22;99009.38;;;4.10;100.00
28167;BME280;15455;53.376;-6.262;2022-12-29T08:02:10;99003.34;;;4.11;100.00
28167;BME280;15455;53.376;-6.262;2022-12-29T08:04:56;99013.66;;;4.10;100.00
28167;BME280;15455;53.376;-6.262;2022-12-29T08:07:43;98997.34;;;4.06;100.00
28167;BME280;15455;53.376;-6.262;2022-12-29T08:10:29;98999.94;;;4.03;100.00
28167;BME280;15455;53.376;-6.262;2022-12-29T08:13:14;98999.09;;;3.96;100.00
28167;BME280;15455;53.376;-6.262;2022-12-29T08:16:00;99002.56;;;3.94;100.00
28167;BME280;15455;53.376;-6.262;2022-12-29T08:18:45;99003.41;;;3.97;100.00
28167;BME280;15455;53.376;-6.262;2022-12-29T08:21:31;98998.25;;;3.99;100.00
28167;BME280;15455;53.376;-6.262;2022-12-29T08:24:16;99016.31;;;3.96;100.00
28167;BME280;15455;53.376;-6.262;2022-12-29T08:27:02;99009.44;;;3.92;100.00
28167;BME280;15455;53.376;-6.262;2022-12-29T08:30:02;99008.59;;;3.90;100.00
28167;BME280;15455;53.376;-6.262;2022-12-29T08:32:48;99008.59;;;3.94;100.00
28167;BME280;15455;53.376;-6.262;2022-12-29T08:35:33;99010.25;;;4.00;100.00
28167;BME280;15455;53.376;-6.262;2022-12-29T08:38:19;99005.13;;;3.94;100.00
28167;BME280;15455;53.376;-6.262;2022-12-29T08:41:04;99017.19;;;3.93;100.00
28167;BME280;15455;53.376;-6.262;2022-12-29T08:43:50;99007.72;;;3.89;100.00
28167;BME280;15455;53.376;-6.262;2022-12-29T08:46:36;99013.75;;;3.85;100.00
28167;BME280;15455;53.376;-6.262;2022-12-29T08:49:21;99010.31;;;3.86;100.00
28167;BME280;15455;53.376;-6.262;2022-12-29T08:52:08;99009.44;;;3.86;100.00
28167;BME280;15455;53.376;-6.262;2022-12-29T08:54:53;99030.09;;;3.82;100.00
28167;BME280;15455;53.376;-6.262;2022-12-29T08:57:39;99040.41;;;3.86;100.00
28167;BME280;15455;53.376;-6.262;2022-12-29T09:00:31;99046.47;;;3.86;100.00
28167;BME280;15455;53.376;-6.262;2022-12-29T09:03:17;99031.84;;;3.82;100.00
28167;BME280;15455;53.376;-6.262;2022-12-29T09:06:22;99043.03;;;3.79;100.00
28167;BME280;15455;53.376;-6.262;2022-12-29T09:09:08;99049.91;;;3.80;100.00
28167;BME280;15455;53.376;-6.262;2022-12-29T09:11:53;99058.50;;;3.81;100.00
28167;BME280;15455;53.376;-6.262;2022-12-29T09:14:39;99067.97;;;3.83;100.00
28167;BME280;15455;53.376;-6.262;2022-12-29T09:17:24;99078.28;;;3.83;100.00
28167;BME280;15455;53.376;-6.262;2022-12-29T09:20:28;99080.84;;;3.85;100.00
28167;BME280;15455;53.376;-6.262;2022-12-29T09:23:14;99095.50;;;3.80;100.00
28167;BME280;15455;53.376;-6.262;2022-12-29T09:25:59;99102.38;;;3.81;100.00
28167;BME280;15455;53.376;-6.262;2022-12-29T09:28:45;99102.34;;;3.86;100.00
28167;BME280;15455;53.376;-6.262;2022-12-29T09:31:32;99104.97;;;3.89;100.00
28167;BME280;15455;53.376;-6.262;2022-12-29T09:34:18;99105.81;;;3.88;100.00
28167;BME280;15455;53.376;-6.262;2022-12-29T09:37:03;99103.22;;;3.88;100.00
28167;BME280;15455;53.376;-6.262;2022-12-29T09:39:49;99107.50;;;3.86;100.00
28167;BME280;15455;53.376;-6.262;2022-12-29T09:42:45;99113.56;;;3.80;100.00
28167;BME280;15455;53.376;-6.262;2022-12-29T09:45:49;99117.88;;;3.75;100.00
28167;BME280;15455;53.376;-6.262;2022-12-29T09:48:44;99116.16;;;3.80;100.00
28167;BME280;15455;53.376;-6.262;2022-12-29T09:51:32;99117.84;;;3.84;100.00
28167;BME280;15455;53.376;-6.262;2022-12-29T09:57:30;99129.03;;;3.89;100.00
28167;BME280;15455;53.376;-6.262;2022-12-29T10:00:23;99139.34;;;3.88;100.00
28167;BME280;15455;53.376;-6.262;2022-12-29T10:03:16;99151.41;;;3.90;100.00
28167;BME280;15455;53.376;-6.262;2022-12-29T10:06:19;99155.69;;;4.04;100.00
28167;BME280;15455;53.376;-6.262;2022-12-29T10:18:52;99177.19;;;3.98;100.00
28167;BME280;15455;53.376;-6.262;2022-12-29T10:24:45;99204.69;;;4.24;100.00
28167;BME280;15455;53.376;-6.262;2022-12-29T10:27:32;99192.63;;;4.26;100.00
28167;BME280;15455;53.376;-6.262;2022-12-29T10:30:19;99206.41;;;4.18;100.00
28167;BME280;15455;53.376;-6.262;2022-12-29T10:33:07;99180.59;;;4.18;100.00
28167;BME280;15455;53.376;-6.262;2022-12-29T10:35:55;99196.91;;;4.33;100.00
28167;BME280;15455;53.376;-6.262;2022-12-29T10:38:49;99196.91;;;4.41;100.00
28167;BME280;15455;53.376;-6.262;2022-12-29T10:41:43;99209.81;;;4.50;100.00
28167;BME280;15455;53.376;-6.262;2022-12-29T10:44:31;99231.31;;;4.60;100.00
28167;BME280;15455;53.376;-6.262;2022-12-29T10:47:22;99222.69;;;4.65;100.00
28167;BME280;15455;53.376;-6.262;2022-12-29T10:50:12;99233.88;;;4.66;100.00
28167;BME280;15455;53.376;-6.262;2022-12-29T10:53:01;99238.19;;;4.62;100.00
28167;BME280;15455;53.376;-6.262;2022-12-29T10:55:48;99240.78;;;4.61;100.00
28167;BME280;15455;53.376;-6.262;2022-12-29T10:58:35;99233.00;;;4.59;100.00
28167;BME280;15455;53.376;-6.262;2022-12-29T11:01:22;99235.63;;;4.55;100.00
28167;BME280;15455;53.376;-6.262;2022-12-29T11:07:11;99239.06;;;4.60;100.00
28167;BME280;15455;53.376;-6.262;2022-12-29T11:10:21;99251.09;;;4.70;100.00
28167;BME280;15455;53.376;-6.262;2022-12-29T11:13:24;99239.84;;;4.83;100.00
28167;BME280;15455;53.376;-6.262;2022-12-29T11:16:11;99253.63;;;4.90;100.00
28167;BME280;15455;53.376;-6.262;2022-12-29T11:18:57;99257.06;;;4.89;100.00
28167;BME280;15455;53.376;-6.262;2022-12-29T11:21:43;99255.38;;;4.76;100.00
28167;BME280;15455;53.376;-6.262;2022-12-29T11:24:30;99262.31;;;4.64;100.00
28167;BME280;15455;53.376;-6.262;2022-12-29T11:27:18;99267.50;;;4.58;100.00
28167;BME280;15455;53.376;-6.262;2022-12-29T11:30:21;99273.50;;;4.57;100.00
28167;BME280;15455;53.376;-6.262;2022-12-29T11:33:08;99282.13;;;4.65;100.00
28167;BME280;15455;53.376;-6.262;2022-12-29T11:36:01;99277.78;;;4.67;100.00
28167;BME280;15455;53.376;-6.262;2022-12-29T11:38:50;99288.13;;;4.67;100.00
28167;BME280;15455;53.376;-6.262;2022-12-29T11:41:35;99283.84;;;4.68;100.00
28167;BME280;15455;53.376;-6.262;2022-12-29T11:44:21;99277.78;;;4.69;100.00
28167;BME280;15455;53.376;-6.262;2022-12-29T11:47:09;99280.34;;;4.72;100.00
28167;BME280;15455;53.376;-6.262;2022-12-29T11:49:59;99296.75;;;4.71;100.00
28167;BME280;15455;53.376;-6.262;2022-12-29T11:52:46;99302.78;;;4.72;100.00
28167;BME280;15455;53.376;-6.262;2022-12-29T11:55:33;99302.78;;;4.72;100.00
28167;BME280;15455;53.376;-6.262;2022-12-29T11:58:19;99289.00;;;4.73;100.00
28167;BME280;15455;53.376;-6.262;2022-12-29T12:01:10;99294.16;;;4.74;100.00
28167;BME280;15455;53.376;-6.262;2022-12-29T12:09:58;99308.78;;;4.78;100.00
28167;BME280;15455;53.376;-6.262;2022-12-29T12:13:04;99304.47;;;4.80;100.00
28167;BME280;15455;53.376;-6.262;2022-12-29T12:16:21;99300.16;;;4.81;100.00
28167;BME280;15455;53.376;-6.262;2022-12-29T12:19:13;99314.81;;;4.80;100.00
28167;BME280;15455;53.376;-6.262;2022-12-29T12:22:14;99309.63;;;4.80;100.00
28167;BME280;15455;53.376;-6.262;2022-12-29T12:30:53;99329.44;;;4.86;100.00
28167;BME280;15455;53.376;-6.262;2022-12-29T12:33:43;99327.72;;;4.86;100.00
28167;BME280;15455;53.376;-6.262;2022-12-29T12:36:42;99328.59;;;4.90;100.00
28167;BME280;15455;53.376;-6.262;2022-12-29T12:42:58;99344.88;;;5.12;100.00
28167;BME280;15455;53.376;-6.262;2022-12-29T12:49:21;99341.38;;;5.33;100.00
28167;BME280;15455;53.376;-6.262;2022-12-29T12:53:13;99339.59;;;5.49;100.00
28167;BME280;15455;53.376;-6.262;2022-12-29T13:05:50;99348.25;;;5.39;100.00
28167;BME280;15455;53.376;-6.262;2022-12-29T13:15:11;99374.94;;;5.46;100.00
28167;BME280;15455;53.376;-6.262;2022-12-29T13:33:41;99412.13;;;5.14;100.00
28167;BME280;15455;53.376;-6.262;2022-12-29T13:36:41;99409.56;;;5.09;100.00
28167;BME280;15455;53.376;-6.262;2022-12-29T13:39:41;99416.47;;;5.07;100.00
28167;BME280;15455;53.376;-6.262;2022-12-29T13:42:28;99435.41;;;5.06;100.00
28167;BME280;15455;53.376;-6.262;2022-12-29T13:45:18;99437.13;;;5.04;100.00
28167;BME280;15455;53.376;-6.262;2022-12-29T13:48:29;99434.53;;;5.04;100.00
28167;BME280;15455;53.376;-6.262;2022-12-29T13:51:21;99431.09;;;5.08;100.00
28167;BME280;15455;53.376;-6.262;2022-12-29T14:00:27;99441.44;;;5.00;100.00
28167;BME280;15455;53.376;-6.262;2022-12-29T14:06:29;99436.28;;;4.94;100.00
28167;BME280;15455;53.376;-6.262;2022-12-29T14:12:37;99442.31;;;4.89;100.00
28167;BME280;15455;53.376;-6.262;2022-12-29T14:15:25;99450.94;;;4.86;100.00
28167;BME280;15455;53.376;-6.262;2022-12-29T14:18:15;99447.50;;;4.85;100.00
28167;BME280;15455;53.376;-6.262;2022-12-29T14:21:09;99447.47;;;4.82;100.00
28167;BME280;15455;53.376;-6.262;2022-12-29T14:24:32;99459.56;;;4.82;100.00
28167;BME280;15455;53.376;-6.262;2022-12-29T14:30:47;99455.25;;;4.76;100.00
28167;BME280;15455;53.376;-6.262;2022-12-29T14:33:34;99469.91;;;4.74;100.00
28167;BME280;15455;53.376;-6.262;2022-12-29T14:36:34;99466.44;;;4.67;100.00
28167;BME280;15455;53.376;-6.262;2022-12-29T14:42:19;99475.91;;;4.53;100.00
28167;BME280;15455;53.376;-6.262;2022-12-29T14:45:27;99472.44;;;4.45;100.00
28167;BME280;15455;53.376;-6.262;2022-12-29T14:48:43;99482.75;;;4.39;100.00
28167;BME280;15455;53.376;-6.262;2022-12-29T14:51:31;99496.53;;;4.36;100.00
28167;BME280;15455;53.376;-6.262;2022-12-29T14:57:31;99488.81;;;4.39;100.00
28167;BME280;15455;53.376;-6.262;2022-12-29T15:00:22;99495.69;;;4.39;100.00
28167;BME280;15455;53.376;-6.262;2022-12-29T15:03:22;99503.41;;;4.37;100.00
28167;BME280;15455;53.376;-6.262;2022-12-29T15:06:11;99501.69;;;4.36;100.00
28167;BME280;15455;53.376;-6.262;2022-12-29T15:09:23;99498.25;;;4.29;100.00
28167;BME280;15455;53.376;-6.262;2022-12-29T15:15:25;99506.84;;;4.22;100.00
28167;BME280;15455;53.376;-6.262;2022-12-29T15:21:12;99493.94;;;4.24;100.00
28167;BME280;15455;53.376;-6.262;2022-12-29T15:24:00;99504.25;;;4.21;100.00
28167;BME280;15455;53.376;-6.262;2022-12-29T15:26:48;99505.09;;;4.16;100.00
28167;BME280;15455;53.376;-6.262;2022-12-29T15:29:43;99505.94;;;4.12;100.00
28167;BME280;15455;53.376;-6.262;2022-12-29T15:32:39;99522.25;;;4.07;100.00
28167;BME280;15455;53.376;-6.262;2022-12-29T15:35:43;99527.41;;;4.02;100.00
28167;BME280;15455;53.376;-6.262;2022-12-29T15:38:34;99529.97;;;3.96;100.00
28167;BME280;15455;53.376;-6.262;2022-12-29T15:41:30;99548.00;;;3.91;100.00
28167;BME280;15455;53.376;-6.262;2022-12-29T15:44:21;99554.88;;;3.86;100.00
28167;BME280;15455;53.376;-6.262;2022-12-29T15:47:15;99562.59;;;3.81;100.00
28167;BME280;15455;53.376;-6.262;2022-12-29T15:50:06;99559.13;;;3.79;100.00
28167;BME280;15455;53.376;-6.262;2022-12-29T15:52:54;99560.88;;;3.82;100.00
28167;BME280;15455;53.376;-6.262;2022-12-29T15:55:41;99558.25;;;3.77;100.00
28167;BME280;15455;53.376;-6.262;2022-12-29T15:58:30;99572.00;;;3.75;100.00
28167;BME280;15455;53.376;-6.262;2022-12-29T16:01:32;99565.09;;;3.69;100.00
28167;BME280;15455;53.376;-6.262;2022-12-29T16:04:19;99567.63;;;3.60;100.00
28167;BME280;15455;53.376;-6.262;2022-12-29T16:07:05;99566.72;;;3.58;100.00
28167;BME280;15455;53.376;-6.262;2022-12-29T16:10:02;99574.44;;;3.55;100.00
28167;BME280;15455;53.376;-6.262;2022-12-29T16:12:47;99563.28;;;3.54;100.00
28167;BME280;15455;53.376;-6.262;2022-12-29T16:15:33;99564.13;;;3.55;100.00
28167;BME280;15455;53.376;-6.262;2022-12-29T16:18:25;99567.56;;;3.54;100.00
28167;BME280;15455;53.376;-6.262;2022-12-29T16:21:29;99562.38;;;3.51;100.00
28167;BME280;15455;53.376;-6.262;2022-12-29T16:24:21;99576.16;;;3.54;100.00
28167;BME280;15455;53.376;-6.262;2022-12-29T16:30:24;99587.44;;;3.64;100.00
28167;BME280;15455;53.376;-6.262;2022-12-29T16:33:47;99594.31;;;3.71;100.00
28167;BME280;15455;53.376;-6.262;2022-12-29T16:36:38;99596.97;;;3.74;100.00
28167;BME280;15455;53.376;-6.262;2022-12-29T16:39:44;99594.38;;;3.73;100.00
28167;BME280;15455;53.376;-6.262;2022-12-29T16:42:43;99596.06;;;3.74;100.00
28167;BME280;15455;53.376;-6.262;2022-12-29T16:48:47;99629.56;;;3.68;100.00
28167;BME280;15455;53.376;-6.262;2022-12-29T16:51:37;99629.56;;;3.63;100.00
28167;BME280;15455;53.376;-6.262;2022-12-29T16:54:26;99632.13;;;3.63;100.00
28167;BME280;15455;53.376;-6.262;2022-12-29T16:57:13;99633.88;;;3.64;100.00
28167;BME280;15455;53.376;-6.262;2022-12-29T17:00:02;99637.28;;;3.63;100.00
28167;BME280;15455;53.376;-6.262;2022-12-29T17:02:49;99632.16;;;3.66;100.00
28167;BME280;15455;53.376;-6.262;2022-12-29T17:05:36;99636.47;;;3.69;100.00